Josephine Anne — WDD9858 — position and weather

sailwx.info

Track history (hours):
 
Tides and Currents Weather Stations Pressure Air Temp Water Temp Dewpoint Dewpoint Depression Visibility Wind Speed Wind Dir Waves Ship Positions

Josephine Anne

Owner: E.N. Bisso & Son, Inc., Metairie, LA. More information available from US FCC via Universal Licensing System and Coast Guard Vessel Documentation Center.

Last reported at 2015-Apr-20 17:33 UTC. Time now 2015-Apr-21 14:47 UTC.
Position N 29°56' W 089°60'.

Length 29 m; draft 4.3 m.

Type: Tug. MMSI: 367317270.

Date/timePositionNaut miles runAvg speedWind from/ knotsBaromVisibWave heightAir tempDewpointWater temp
2015-Apr-20 17:33N 29°56' W 089°60'3 0.2
2015-Apr-20 01:22N 29°56' W 090°03'2 2.1
2015-Apr-20 00:32N 29°58' W 090°02'0 0.0
2015-Apr-19 23:33N 29°58' W 090°02'0 0.0
2015-Apr-19 22:29N 29°58' W 090°02'0 0.0
2015-Apr-19 21:29N 29°58' W 090°02'3 3.0
2015-Apr-19 20:28N 29°56' W 089°59'3 3.0
2015-Apr-19 19:30N 29°57' W 090°02'4 4.3
2015-Apr-19 18:31N 29°55' W 090°06'0 0.0
2015-Apr-19 17:27N 29°55' W 090°06'3 3.0
2015-Apr-19 16:26N 29°57' W 090°04'4 1.8
2015-Apr-19 14:30N 29°56' W 089°60'3 2.8
2015-Apr-19 13:32N 29°58' W 090°02'0 0.0
2015-Apr-19 12:33N 29°58' W 090°02'0 0.0
2015-Apr-19 11:33N 29°58' W 090°02'0 0.0
2015-Apr-19 10:31N 29°58' W 090°02'0 0.0
2015-Apr-19 09:33N 29°58' W 090°02'3 2.9
2015-Apr-19 08:30N 29°55' W 090°04'2 1.8
2015-Apr-19 07:29N 29°57' W 090°03'1 0.2
2015-Apr-19 00:04N 29°58' W 090°03'2 4.2
2015-Apr-18 23:32N 29°56' W 090°04'2 1.6
2015-Apr-18 22:33N 29°57' W 090°03'6 2.0
2015-Apr-18 19:30N 29°55' W 089°57'0 0.0
2015-Apr-18 18:33N 29°55' W 089°57'0 0.0
2015-Apr-18 17:27N 29°55' W 089°57'7 2.4
2015-Apr-18 14:25N 29°55' W 090°05'3 2.3
2015-Apr-18 13:04N 29°56' W 090°08'1 0.8
2015-Apr-18 12:04N 29°56' W 090°08'0 0.0
2015-Apr-18 11:23N 29°56' W 090°08'0 0.0
2015-Apr-18 10:30N 29°56' W 090°08'1 0.7
2015-Apr-18 09:27N 29°56' W 090°08'1 0.8
2015-Apr-18 08:32N 29°55' W 090°08'3 2.6
2015-Apr-18 07:32N 29°55' W 090°05'1 1.2
2015-Apr-18 06:32N 29°55' W 090°04'0 0.3
2015-Apr-18 05:33N 29°55' W 090°04'0 0.0
2015-Apr-18 04:33N 29°55' W 090°04'0 0.1
2015-Apr-18 03:32N 29°55' W 090°04'5 5.2
2015-Apr-18 02:29N 29°55' W 089°58'8 2.7
2015-Apr-17 23:30N 29°54' W 090°07'  
Track history (hours):
 
Tides and Currents Weather Stations Pressure Air Temp Water Temp Dewpoint Dewpoint Depression Visibility Wind Speed Wind Dir Waves Ship Positions

Josephine Anne

Owner: E.N. Bisso & Son, Inc., Metairie, LA. More information available from US FCC via Universal Licensing System and Coast Guard Vessel Documentation Center.

Last reported at 2015-Apr-20 17:33 UTC. Time now 2015-Apr-21 14:47 UTC.
Position N 29°56' W 089°60'.

Length 29 m; draft 4.3 m.

Type: Tug. MMSI: 367317270.

Date/timePositionNaut miles runAvg speedWind from/ knotsBaromVisibWave heightAir tempDewpointWater temp
2015-Apr-20 17:33N 29°56' W 089°60'3 0.2
2015-Apr-20 01:22N 29°56' W 090°03'2 2.1
2015-Apr-20 00:32N 29°58' W 090°02'0 0.0
2015-Apr-19 23:33N 29°58' W 090°02'0 0.0
2015-Apr-19 22:29N 29°58' W 090°02'0 0.0
2015-Apr-19 21:29N 29°58' W 090°02'3 3.0
2015-Apr-19 20:28N 29°56' W 089°59'3 3.0
2015-Apr-19 19:30N 29°57' W 090°02'4 4.3
2015-Apr-19 18:31N 29°55' W 090°06'0 0.0
2015-Apr-19 17:27N 29°55' W 090°06'3 3.0
2015-Apr-19 16:26N 29°57' W 090°04'4 1.8
2015-Apr-19 14:30N 29°56' W 089°60'3 2.8
2015-Apr-19 13:32N 29°58' W 090°02'0 0.0
2015-Apr-19 12:33N 29°58' W 090°02'0 0.0
2015-Apr-19 11:33N 29°58' W 090°02'0 0.0
2015-Apr-19 10:31N 29°58' W 090°02'0 0.0
2015-Apr-19 09:33N 29°58' W 090°02'3 2.9
2015-Apr-19 08:30N 29°55' W 090°04'2 1.8
2015-Apr-19 07:29N 29°57' W 090°03'1 0.2
2015-Apr-19 00:04N 29°58' W 090°03'2 4.2
2015-Apr-18 23:32N 29°56' W 090°04'2 1.6
2015-Apr-18 22:33N 29°57' W 090°03'6 2.0
2015-Apr-18 19:30N 29°55' W 089°57'0 0.0
2015-Apr-18 18:33N 29°55' W 089°57'0 0.0
2015-Apr-18 17:27N 29°55' W 089°57'7 2.4
2015-Apr-18 14:25N 29°55' W 090°05'3 2.3
2015-Apr-18 13:04N 29°56' W 090°08'1 0.8
2015-Apr-18 12:04N 29°56' W 090°08'0 0.0
2015-Apr-18 11:23N 29°56' W 090°08'0 0.0
2015-Apr-18 10:30N 29°56' W 090°08'1 0.7
2015-Apr-18 09:27N 29°56' W 090°08'1 0.8
2015-Apr-18 08:32N 29°55' W 090°08'3 2.6
2015-Apr-18 07:32N 29°55' W 090°05'1 1.2
2015-Apr-18 06:32N 29°55' W 090°04'0 0.3
2015-Apr-18 05:33N 29°55' W 090°04'0 0.0
2015-Apr-18 04:33N 29°55' W 090°04'0 0.1
2015-Apr-18 03:32N 29°55' W 090°04'5 5.2
2015-Apr-18 02:29N 29°55' W 089°58'8 2.7
2015-Apr-17 23:30N 29°54' W 090°07'  

Dump ship's entire track history